createdAt,value
2023-05-19T00:00:50.873Z,0.00
2023-05-19T00:04:48.806Z,0.00
2023-05-19T00:05:48.973Z,0.00
2023-05-19T00:06:49.498Z,0.00
2023-05-19T00:07:48.352Z,0.00
2023-05-19T00:09:48.194Z,0.00
2023-05-19T00:23:54.582Z,0.00
2023-05-19T00:24:54.476Z,0.00
2023-05-19T00:25:55.106Z,0.00
2023-05-19T00:30:19.825Z,0.00
2023-05-19T00:31:19.760Z,0.00
2023-05-19T00:32:20.133Z,0.00
2023-05-19T00:34:19.684Z,0.00
2023-05-19T00:35:20.145Z,0.00
2023-05-19T00:36:19.368Z,0.00
2023-05-19T00:37:19.266Z,0.00
2023-05-19T00:38:19.184Z,0.00
2023-05-19T00:39:19.303Z,0.00
2023-05-19T00:40:19.529Z,0.00
2023-05-19T00:41:18.939Z,0.00
2023-05-19T00:42:18.854Z,0.00
2023-05-19T00:46:18.499Z,0.00
2023-05-19T00:47:18.434Z,0.00
2023-05-19T00:48:18.515Z,0.00
2023-05-19T01:02:17.159Z,0.00
2023-05-19T01:03:17.140Z,0.00
2023-05-19T01:04:17.209Z,0.00
2023-05-19T01:06:16.837Z,0.00
2023-05-19T01:18:16.821Z,0.00
2023-05-19T01:19:17.022Z,0.00
2023-05-19T01:53:12.862Z,0.00
2023-05-19T01:54:12.756Z,0.00
2023-05-19T01:55:12.679Z,0.00
2023-05-19T01:56:12.627Z,0.00
2023-05-19T01:57:12.504Z,0.00
2023-05-19T01:58:12.426Z,0.00
2023-05-19T01:59:12.338Z,0.00
2023-05-19T02:00:12.302Z,0.00
2023-05-19T02:01:12.465Z,0.00
2023-05-19T02:02:12.321Z,0.00
2023-05-19T02:03:12.004Z,0.00
2023-05-19T02:04:12.188Z,0.00
2023-05-19T02:05:11.830Z,0.00
2023-05-19T02:06:11.794Z,0.00
2023-05-19T02:07:11.657Z,0.00
2023-05-19T02:08:11.612Z,0.00
2023-05-19T02:09:11.524Z,0.00
2023-05-19T02:10:11.494Z,0.00
2023-05-19T02:11:11.319Z,0.00
2023-05-19T02:13:11.147Z,0.00
2023-05-19T02:14:11.064Z,0.00
2023-05-19T02:15:11.015Z,0.00
2023-05-19T02:16:10.961Z,0.00
2023-05-19T02:17:10.855Z,0.00
2023-05-19T02:18:10.758Z,0.00
2023-05-19T02:19:10.716Z,0.00
2023-05-19T02:20:10.555Z,0.00
2023-05-19T02:21:10.472Z,0.00
2023-05-19T02:22:10.434Z,0.00
2023-05-19T02:24:10.263Z,0.00
2023-05-19T02:25:10.156Z,0.00
2023-05-19T02:26:10.049Z,0.00
2023-05-19T02:27:09.959Z,0.00
2023-05-19T02:28:09.873Z,0.00
2023-05-19T02:29:09.842Z,0.00
2023-05-19T02:30:09.733Z,0.00
2023-05-19T02:31:09.617Z,0.00
2023-05-19T02:32:09.598Z,0.00
2023-05-19T02:33:09.535Z,0.00
2023-05-19T02:34:09.364Z,0.00
2023-05-19T02:35:09.285Z,0.00
2023-05-19T02:36:09.203Z,0.00
2023-05-19T02:37:09.108Z,0.00
2023-05-19T02:38:09.021Z,0.00
2023-05-19T02:39:08.971Z,0.00
2023-05-19T02:40:08.863Z,0.00
2023-05-19T02:41:08.964Z,0.00
2023-05-19T02:42:08.687Z,0.00
2023-05-19T02:43:08.598Z,0.00
2023-05-19T02:44:08.507Z,0.00
2023-05-19T02:45:08.450Z,0.00
2023-05-19T02:46:08.464Z,0.00
2023-05-19T02:47:08.262Z,0.00
2023-05-19T02:48:08.234Z,0.00
2023-05-19T02:49:08.113Z,0.00
2023-05-19T02:50:08.016Z,0.00
2023-05-19T02:51:07.964Z,0.00
2023-05-19T02:52:07.873Z,0.00
2023-05-19T02:53:07.758Z,0.00
2023-05-19T02:54:07.699Z,0.00
2023-05-19T02:55:07.614Z,0.00
2023-05-19T02:56:07.493Z,0.00
2023-05-19T02:57:07.428Z,0.00
2023-05-19T02:58:07.320Z,0.00
2023-05-19T02:59:07.242Z,0.00
2023-05-19T03:00:07.167Z,0.00
2023-05-19T03:01:07.068Z,0.00
2023-05-19T03:02:07.103Z,0.00
2023-05-19T03:03:06.934Z,0.00
2023-05-19T03:04:06.888Z,0.00
2023-05-19T03:05:06.726Z,0.00
2023-05-19T03:06:06.942Z,4.00
2023-05-19T03:07:06.556Z,4.00
2023-05-19T03:08:06.620Z,4.00
2023-05-19T03:09:06.394Z,0.00
2023-05-19T03:10:06.305Z,4.00
2023-05-19T03:11:06.214Z,4.00
2023-05-19T03:12:06.130Z,8.00
2023-05-19T03:13:06.076Z,4.00
2023-05-19T03:14:05.959Z,8.00
2023-05-19T03:15:05.870Z,8.00
2023-05-19T03:16:05.815Z,12.00
2023-05-19T03:17:05.717Z,12.00
2023-05-19T03:18:05.630Z,12.00
2023-05-19T03:19:05.607Z,12.00
2023-05-19T03:20:05.463Z,12.00
2023-05-19T03:21:05.364Z,16.00
2023-05-19T03:22:05.299Z,20.00
2023-05-19T03:23:05.650Z,20.00
2023-05-19T03:24:05.123Z,24.00
2023-05-19T03:25:05.021Z,28.00
2023-05-19T03:26:05.342Z,28.00
2023-05-19T03:27:04.856Z,36.00
2023-05-19T03:28:04.770Z,40.00
2023-05-19T03:29:04.713Z,44.00
2023-05-19T03:30:06.456Z,44.00
2023-05-19T03:31:04.513Z,52.00
2023-05-19T03:32:04.452Z,60.00
2023-05-19T03:33:04.397Z,60.00
2023-05-19T03:34:04.257Z,68.00
2023-05-19T03:35:04.175Z,72.00
2023-05-19T03:36:04.108Z,80.00
2023-05-19T03:37:04.001Z,84.00
2023-05-19T03:38:03.972Z,92.00
2023-05-19T03:39:03.831Z,96.00
2023-05-19T03:40:03.752Z,104.00
2023-05-19T03:41:03.660Z,112.00
2023-05-19T03:42:03.576Z,120.00
2023-05-19T03:43:03.503Z,128.00
2023-05-19T03:44:03.407Z,136.00
2023-05-19T03:45:03.339Z,144.00
2023-05-19T03:46:03.289Z,156.00
2023-05-19T03:47:03.299Z,164.00
2023-05-19T03:48:03.123Z,172.00
2023-05-19T03:49:02.984Z,180.00
2023-05-19T03:50:02.894Z,192.00
2023-05-19T03:51:02.812Z,200.00
2023-05-19T03:52:02.720Z,216.00
2023-05-19T03:53:02.640Z,224.00
2023-05-19T03:54:02.959Z,232.00
2023-05-19T03:55:02.470Z,248.00
2023-05-19T03:56:02.389Z,260.00
2023-05-19T03:57:02.309Z,276.00
2023-05-19T03:58:02.214Z,288.00
2023-05-19T03:59:02.136Z,304.00
2023-05-19T04:00:02.042Z,320.00
2023-05-19T04:01:01.981Z,336.00
2023-05-19T04:02:01.916Z,348.00
2023-05-19T04:03:01.817Z,364.00
2023-05-19T04:04:01.749Z,384.00
2023-05-19T04:05:01.649Z,400.00
2023-05-19T04:06:01.525Z,416.00
2023-05-19T04:07:01.441Z,432.00
2023-05-19T04:08:01.357Z,448.00
2023-05-19T04:09:01.275Z,468.00
2023-05-19T04:10:01.340Z,484.00
2023-05-19T04:11:01.107Z,504.00
2023-05-19T04:12:01.016Z,516.00
2023-05-19T04:13:00.929Z,540.00
2023-05-19T04:14:00.846Z,552.00
2023-05-19T04:15:00.765Z,572.00
2023-05-19T04:16:00.726Z,584.00
2023-05-19T04:17:00.697Z,604.00
2023-05-19T04:18:00.549Z,620.00
2023-05-19T04:19:00.591Z,632.00
2023-05-19T04:20:00.336Z,640.00
2023-05-19T04:21:00.250Z,652.00
2023-05-19T04:22:00.167Z,660.00
2023-05-19T04:23:00.102Z,676.00
2023-05-19T04:24:00.005Z,692.00
2023-05-19T04:24:59.918Z,708.00
2023-05-19T04:25:59.825Z,724.00
2023-05-19T04:26:59.753Z,740.00
2023-05-19T04:27:59.654Z,756.00
2023-05-19T04:28:59.570Z,772.00
2023-05-19T04:29:59.734Z,788.00
2023-05-19T04:30:59.415Z,804.00
2023-05-19T04:31:59.319Z,820.00
2023-05-19T04:32:59.321Z,832.00
2023-05-19T04:33:59.146Z,844.00
2023-05-19T04:34:59.068Z,852.00
2023-05-19T04:35:58.981Z,864.00
2023-05-19T04:36:58.894Z,876.00
2023-05-19T04:37:58.808Z,888.00
2023-05-19T04:38:58.725Z,896.00
2023-05-19T04:39:58.644Z,908.00
2023-05-19T04:40:58.555Z,912.00
2023-05-19T04:41:58.467Z,920.00
2023-05-19T04:42:58.636Z,928.00
2023-05-19T04:43:58.319Z,936.00
2023-05-19T04:44:58.232Z,948.00
2023-05-19T04:45:58.150Z,952.00
2023-05-19T04:46:58.207Z,956.00
2023-05-19T04:47:58.148Z,964.00
2023-05-19T04:48:57.904Z,964.00
2023-05-19T04:49:58.147Z,972.00
2023-05-19T04:50:57.717Z,976.00
2023-05-19T04:51:57.628Z,976.00
2023-05-19T04:52:57.548Z,980.00
2023-05-19T04:54:39.947Z,980.00
2023-05-19T04:55:39.855Z,976.00
2023-05-19T04:56:39.772Z,976.00
2023-05-19T04:57:39.690Z,972.00
2023-05-19T04:58:41.318Z,972.00
2023-05-19T04:59:39.518Z,976.00
2023-05-19T05:00:39.437Z,976.00
2023-05-19T05:01:39.400Z,976.00
2023-05-19T05:02:39.498Z,976.00
2023-05-19T05:03:39.233Z,984.00
2023-05-19T05:04:39.120Z,980.00
2023-05-19T05:05:39.012Z,988.00
2023-05-19T05:06:39.288Z,1000.00
2023-05-19T05:07:41.872Z,1008.00
2023-05-19T05:08:38.763Z,1024.00
2023-05-19T05:09:38.727Z,1036.00
2023-05-19T05:10:38.593Z,1048.00
2023-05-19T05:11:38.517Z,1064.00
2023-05-19T05:12:38.768Z,1084.00
2023-05-19T05:13:38.780Z,1104.00
2023-05-19T05:14:38.297Z,1128.00
2023-05-19T05:15:38.207Z,1152.00
2023-05-19T05:16:38.180Z,1180.00
2023-05-19T05:17:38.379Z,1216.00
2023-05-19T05:18:37.960Z,1256.00
2023-05-19T05:19:37.878Z,1292.00
2023-05-19T05:21:37.706Z,1380.00
2023-05-19T05:23:37.544Z,1480.00
2023-05-19T05:24:37.628Z,1524.00
2023-05-19T05:25:37.339Z,1572.00
2023-05-19T05:26:37.257Z,1608.00
2023-05-19T05:27:37.176Z,1648.00
2023-05-19T05:28:37.091Z,1692.00
2023-05-19T05:29:37.016Z,1736.00
2023-05-19T05:30:36.932Z,1780.00
2023-05-19T05:31:36.844Z,1816.00
2023-05-19T05:32:36.876Z,1860.00
2023-05-19T05:33:36.773Z,1904.00
2023-05-19T05:34:36.592Z,1956.00
2023-05-19T05:35:36.516Z,2004.00
2023-05-19T05:36:36.426Z,2060.00
2023-05-19T05:37:36.374Z,2116.00
2023-05-19T05:38:36.271Z,2172.00
2023-05-19T05:39:36.182Z,2228.00
2023-05-19T05:40:36.448Z,2272.00
2023-05-19T05:41:36.060Z,2316.00
2023-05-19T05:42:35.932Z,2356.00
2023-05-19T05:43:35.889Z,2392.00
2023-05-19T05:44:35.774Z,2428.00
2023-05-19T05:45:35.839Z,2464.00
2023-05-19T05:46:35.657Z,2476.00
2023-05-19T05:47:35.557Z,2488.00
2023-05-19T05:48:35.447Z,2504.00
2023-05-19T05:49:35.358Z,2524.00
2023-05-19T05:50:35.288Z,2532.00
2023-05-19T05:51:35.192Z,2544.00
2023-05-19T05:52:35.124Z,2552.00
2023-05-19T05:53:35.052Z,2556.00
2023-05-19T05:54:34.985Z,2544.00
2023-05-19T05:55:35.189Z,2524.00
2023-05-19T05:56:37.425Z,2516.00
2023-05-19T05:57:34.706Z,2500.00
2023-05-19T05:58:35.797Z,2480.00
2023-05-19T06:07:09.631Z,2696.00
2023-05-19T06:08:09.548Z,2728.00
2023-05-19T06:09:09.479Z,2672.00
2023-05-19T06:10:09.376Z,2644.00
2023-05-19T06:11:09.330Z,2648.00
2023-05-19T06:12:09.216Z,2744.00
2023-05-19T06:13:09.134Z,2764.00
2023-05-19T06:14:09.052Z,2808.00
2023-05-19T06:15:08.967Z,2856.00
2023-05-19T06:16:08.950Z,2952.00
2023-05-19T06:17:08.858Z,3104.00
2023-05-19T06:18:08.800Z,3220.00
2023-05-19T06:19:08.717Z,3208.00
2023-05-19T06:20:08.610Z,3280.00
2023-05-19T06:21:08.483Z,3400.00
2023-05-19T06:22:08.397Z,3532.00
2023-05-19T06:23:08.320Z,3640.00
2023-05-19T06:24:08.239Z,3744.00
2023-05-19T06:25:08.305Z,3744.00
2023-05-19T06:26:08.080Z,3780.00
2023-05-19T06:27:08.005Z,3792.00
2023-05-19T06:28:07.918Z,3660.00
2023-05-19T06:29:07.835Z,3712.00
2023-05-19T06:30:07.790Z,3652.00
2023-05-19T06:31:07.766Z,3624.00
2023-05-19T06:32:07.592Z,3632.00
2023-05-19T06:33:07.584Z,3560.00
2023-05-19T06:34:07.441Z,3484.00
2023-05-19T06:35:07.373Z,3460.00
2023-05-19T06:36:07.370Z,3412.00
2023-05-19T06:37:07.199Z,3412.00
2023-05-19T06:38:07.108Z,3332.00
2023-05-19T06:39:07.028Z,3260.00
2023-05-19T06:40:06.964Z,3248.00
2023-05-19T06:41:06.900Z,3216.00
2023-05-19T06:42:06.787Z,3160.00
2023-05-19T06:43:06.751Z,3076.00
2023-05-19T06:44:06.634Z,3004.00
2023-05-19T06:45:06.555Z,2976.00
2023-05-19T06:46:06.466Z,2944.00
2023-05-19T06:51:55.697Z,2896.00
2023-05-19T06:52:55.862Z,2816.00
2023-05-19T06:53:55.270Z,2804.00
2023-05-19T06:54:55.190Z,2776.00
2023-05-19T06:56:00.062Z,2708.00
2023-05-19T06:56:55.174Z,2712.00
2023-05-19T06:57:55.057Z,2632.00
2023-05-19T06:58:54.868Z,2512.00
2023-05-19T06:59:55.196Z,2440.00
2023-05-19T07:01:55.105Z,2324.00
2023-05-19T07:02:54.801Z,2292.00
2023-05-19T07:03:54.584Z,2296.00
2023-05-19T07:04:54.357Z,2264.00
2023-05-19T07:05:54.277Z,2232.00
2023-05-19T07:06:54.196Z,2184.00
2023-05-19T07:07:54.153Z,2168.00
2023-05-19T07:08:54.043Z,2048.00
2023-05-19T07:09:53.996Z,2108.00
2023-05-19T07:10:54.317Z,2124.00
2023-05-19T07:11:53.841Z,2100.00
2023-05-19T07:12:53.758Z,2088.00
2023-05-19T07:13:53.739Z,2072.00
2023-05-19T07:14:53.575Z,2064.00
2023-05-19T07:15:53.506Z,2032.00
2023-05-19T07:16:53.454Z,2008.00
2023-05-19T07:17:53.380Z,1996.00
2023-05-19T07:18:53.279Z,1980.00
2023-05-19T07:19:53.461Z,1972.00
2023-05-19T07:20:53.088Z,1960.00
2023-05-19T07:21:53.053Z,1952.00
2023-05-19T07:22:52.924Z,1936.00
2023-05-19T07:23:52.848Z,1932.00
2023-05-19T07:24:52.766Z,1920.00
2023-05-19T07:25:55.311Z,1904.00
2023-05-19T07:26:52.709Z,1900.00
2023-05-19T07:27:52.525Z,1892.00
2023-05-19T07:28:52.489Z,1892.00
2023-05-19T07:29:52.375Z,1884.00
2023-05-19T07:30:52.314Z,1888.00
2023-05-19T07:31:52.608Z,1880.00
2023-05-19T07:32:52.220Z,1892.00
2023-05-19T07:33:54.465Z,1896.00
2023-05-19T07:34:51.981Z,1884.00
2023-05-19T07:35:51.909Z,1812.00
2023-05-19T07:36:51.820Z,1888.00
2023-05-19T07:37:51.746Z,1896.00
2023-05-19T07:38:51.714Z,1896.00
2023-05-19T07:39:51.813Z,1912.00
2023-05-19T07:40:51.501Z,1924.00
2023-05-19T07:41:51.424Z,1936.00
2023-05-19T07:42:51.347Z,1956.00
2023-05-19T07:43:51.268Z,1988.00
2023-05-19T07:44:51.269Z,2008.00
2023-05-19T07:45:51.148Z,2028.00
2023-05-19T07:46:51.052Z,2044.00
2023-05-19T07:47:50.971Z,2056.00
2023-05-19T07:48:50.875Z,2064.00
2023-05-19T07:49:52.012Z,2080.00
2023-05-19T07:50:50.715Z,2100.00
2023-05-19T07:51:50.693Z,2128.00
2023-05-19T07:52:50.578Z,2152.00
2023-05-19T07:53:50.480Z,2156.00
2023-05-19T07:54:50.405Z,2160.00
2023-05-19T07:55:50.331Z,2176.00
2023-05-19T07:56:50.250Z,2188.00
2023-05-19T07:57:50.171Z,2200.00
2023-05-19T07:58:50.100Z,2200.00
2023-05-19T07:59:50.011Z,2212.00
2023-05-19T08:00:49.967Z,2232.00
2023-05-19T08:01:49.954Z,2264.00
2023-05-19T08:02:49.833Z,2288.00
2023-05-19T08:03:49.819Z,2288.00
2023-05-19T08:04:49.675Z,2276.00
2023-05-19T08:05:49.545Z,2348.00
2023-05-19T08:06:49.462Z,2360.00
2023-05-19T08:07:49.383Z,2364.00
2023-05-19T08:08:49.313Z,2348.00
2023-05-19T08:09:49.232Z,2328.00
2023-05-19T08:10:49.171Z,2316.00
2023-05-19T08:11:49.116Z,2300.00
2023-05-19T08:12:49.008Z,2296.00
2023-05-19T08:13:48.926Z,2324.00
2023-05-19T08:14:48.883Z,2300.00
2023-05-19T08:15:48.817Z,2324.00
2023-05-19T08:16:48.740Z,2292.00
2023-05-19T08:17:48.675Z,2448.00
2023-05-19T08:18:48.551Z,2736.00
2023-05-19T08:19:48.460Z,2912.00
2023-05-19T08:20:48.409Z,2920.00
2023-05-19T08:21:48.304Z,2776.00
2023-05-19T08:22:48.227Z,2624.00
2023-05-19T08:23:48.147Z,2620.00
2023-05-19T08:24:48.072Z,2744.00
2023-05-19T08:25:47.994Z,2836.00
2023-05-19T08:26:47.931Z,3092.00
2023-05-19T08:27:47.840Z,3492.00
2023-05-19T08:28:47.769Z,3984.00
2023-05-19T08:29:47.683Z,4008.00
2023-05-19T08:30:47.602Z,3864.00
2023-05-19T08:31:47.540Z,3784.00
2023-05-19T08:32:47.698Z,3712.00
2023-05-19T08:33:47.375Z,3492.00
2023-05-19T08:34:47.306Z,3540.00
2023-05-19T08:35:47.319Z,4160.00
2023-05-19T08:36:47.144Z,4508.00
2023-05-19T08:37:47.068Z,4808.00
2023-05-19T08:38:47.044Z,4984.00
2023-05-19T08:39:46.914Z,5132.00
2023-05-19T08:40:46.846Z,5052.00
2023-05-19T08:41:46.761Z,5028.00
2023-05-19T08:42:46.888Z,5292.00
2023-05-19T08:43:46.603Z,5524.00
2023-05-19T08:44:46.536Z,5516.00
2023-05-19T08:45:46.476Z,5204.00
2023-05-19T08:46:46.434Z,5012.00
2023-05-19T08:47:46.329Z,5180.00
2023-05-19T08:48:46.345Z,5456.00
2023-05-19T08:49:46.156Z,5696.00
2023-05-19T08:50:46.075Z,5952.00
2023-05-19T08:51:45.993Z,6072.00
2023-05-19T08:52:49.470Z,6324.00
2023-05-19T08:53:45.841Z,6628.00
2023-05-19T08:54:45.769Z,6856.00
2023-05-19T08:55:45.684Z,6848.00
2023-05-19T08:56:45.689Z,6884.00
2023-05-19T08:57:45.539Z,7048.00
2023-05-19T08:58:45.460Z,7356.00
2023-05-19T08:59:45.382Z,7540.00
2023-05-19T09:00:45.337Z,7752.00
2023-05-19T09:01:45.235Z,7916.00
2023-05-19T09:02:55.077Z,8068.00
2023-05-19T09:03:45.097Z,8268.00
2023-05-19T09:04:45.066Z,8488.00
2023-05-19T09:05:44.941Z,8516.00
2023-05-19T09:06:44.853Z,8724.00
2023-05-19T09:07:44.775Z,8608.00
2023-05-19T09:08:44.717Z,8592.00
2023-05-19T09:09:44.629Z,8668.00
2023-05-19T09:10:44.571Z,8716.00
2023-05-19T09:11:44.476Z,8744.00
2023-05-19T09:12:44.400Z,8816.00
2023-05-19T09:13:44.322Z,8940.00
2023-05-19T09:14:44.248Z,9224.00
2023-05-19T09:15:44.172Z,9412.00
2023-05-19T09:16:44.143Z,9576.00
2023-05-19T09:17:44.567Z,9852.00
2023-05-19T09:18:43.978Z,9744.00
2023-05-19T09:19:44.279Z,9868.00
2023-05-19T09:20:43.822Z,10008.00
2023-05-19T09:21:44.629Z,9916.00
2023-05-19T09:22:43.645Z,10072.00
2023-05-19T09:23:43.718Z,10320.00
2023-05-19T09:24:43.498Z,10800.00
2023-05-19T09:25:43.419Z,10904.00
2023-05-19T09:26:43.346Z,11132.00
2023-05-19T09:27:43.367Z,11376.00
2023-05-19T09:28:43.197Z,11208.00
2023-05-19T09:29:43.121Z,11052.00
2023-05-19T09:30:43.046Z,11012.00
2023-05-19T09:31:42.983Z,10776.00
2023-05-19T09:32:43.617Z,10632.00
2023-05-19T09:33:45.267Z,10504.00
2023-05-19T09:34:42.746Z,10412.00
2023-05-19T09:35:42.682Z,10088.00
2023-05-19T09:36:42.627Z,9448.00
2023-05-19T09:37:42.527Z,8836.00
2023-05-19T09:38:42.452Z,8468.00
2023-05-19T09:39:42.383Z,7900.00
2023-05-19T09:40:42.299Z,6656.00
2023-05-19T09:41:42.227Z,6464.00
2023-05-19T09:42:42.155Z,6200.00
2023-05-19T09:43:42.077Z,5912.00
2023-05-19T09:44:42.256Z,5568.00
2023-05-19T09:45:41.958Z,5412.00
2023-05-19T09:46:41.978Z,5332.00
2023-05-19T09:47:41.848Z,5332.00
2023-05-19T09:48:42.617Z,5148.00
2023-05-19T09:49:41.630Z,5320.00
2023-05-19T09:50:41.557Z,5596.00
2023-05-19T09:51:41.479Z,5884.00
2023-05-19T09:52:41.485Z,5816.00
2023-05-19T09:53:41.331Z,5772.00
2023-05-19T09:54:41.260Z,5768.00
2023-05-19T09:55:41.184Z,5724.00
2023-05-19T09:56:41.107Z,5884.00
2023-05-19T09:57:41.032Z,5920.00
2023-05-19T09:58:40.971Z,5980.00
2023-05-19T09:59:40.891Z,6088.00
2023-05-19T10:00:40.807Z,6064.00
2023-05-19T10:01:40.750Z,6400.00
2023-05-19T10:02:40.669Z,7004.00
2023-05-19T10:03:40.588Z,7488.00
2023-05-19T10:04:40.539Z,7888.00
2023-05-19T10:05:40.429Z,7988.00
2023-05-19T10:06:40.353Z,8156.00
2023-05-19T10:07:40.278Z,7844.00
2023-05-19T10:08:40.230Z,7760.00
2023-05-19T10:09:40.132Z,7416.00
2023-05-19T10:10:40.410Z,7272.00
2023-05-19T10:11:39.979Z,7024.00
2023-05-19T10:12:39.906Z,6888.00
2023-05-19T10:13:39.835Z,7248.00
2023-05-19T10:14:39.760Z,7332.00
2023-05-19T10:15:49.957Z,6964.00
2023-05-19T10:16:39.703Z,6968.00
2023-05-19T10:17:39.559Z,7336.00
2023-05-19T10:18:40.261Z,7176.00
2023-05-19T10:19:39.483Z,6840.00
2023-05-19T10:20:39.559Z,6528.00
2023-05-19T10:21:39.233Z,6796.00
2023-05-19T10:22:39.158Z,6828.00
2023-05-19T10:23:39.086Z,7268.00
2023-05-19T10:24:39.033Z,7936.00
2023-05-19T10:25:38.935Z,8556.00
2023-05-19T10:26:38.863Z,8456.00
2023-05-19T10:27:38.784Z,7964.00
2023-05-19T10:28:38.709Z,7160.00
2023-05-19T10:29:38.689Z,6636.00
2023-05-19T10:30:38.563Z,6360.00
2023-05-19T10:31:38.506Z,6120.00
2023-05-19T10:32:38.453Z,5940.00
2023-05-19T10:33:38.339Z,5812.00
2023-05-19T10:34:38.265Z,5752.00
2023-05-19T10:35:38.291Z,5868.00
2023-05-19T10:36:38.139Z,6028.00
2023-05-19T10:37:38.053Z,6120.00
2023-05-19T10:38:37.968Z,6236.00
2023-05-19T10:39:37.893Z,6480.00
2023-05-19T10:40:37.849Z,6880.00
2023-05-19T10:41:37.740Z,7260.00
2023-05-19T10:42:37.681Z,7572.00
2023-05-19T10:43:37.611Z,8000.00
2023-05-19T10:44:37.529Z,8348.00
2023-05-19T10:45:37.444Z,8352.00
2023-05-19T10:46:37.648Z,8336.00
2023-05-19T10:47:37.315Z,8012.00
2023-05-19T10:48:37.228Z,8144.00
2023-05-19T10:49:37.149Z,8448.00
2023-05-19T10:50:37.124Z,9296.00
2023-05-19T10:51:37.007Z,10156.00
2023-05-19T10:52:36.925Z,11312.00
2023-05-19T10:53:36.851Z,12276.00
2023-05-19T10:54:36.777Z,13132.00
2023-05-19T10:55:36.712Z,12976.00
2023-05-19T10:56:36.748Z,13384.00
2023-05-19T10:57:36.564Z,13576.00
2023-05-19T10:58:36.483Z,15808.00
2023-05-19T10:59:36.454Z,15968.00
2023-05-19T11:00:36.333Z,26624.00
2023-05-19T11:01:36.289Z,27200.00
2023-05-19T11:02:36.280Z,33024.00
2023-05-19T11:03:36.135Z,15364.00
2023-05-19T11:04:36.540Z,17152.00
2023-05-19T11:05:36.097Z,16320.00
2023-05-19T11:06:35.887Z,16928.00
2023-05-19T11:07:35.819Z,15648.00
2023-05-19T11:08:35.844Z,18592.00
2023-05-19T11:09:40.591Z,19264.00
2023-05-19T11:10:35.597Z,20160.00
2023-05-19T11:11:38.147Z,28320.00
2023-05-19T11:12:35.676Z,18240.00
2023-05-19T11:13:36.739Z,18432.00
2023-05-19T11:14:35.302Z,18816.00
2023-05-19T11:15:35.342Z,20736.00
2023-05-19T11:16:35.184Z,25088.00
2023-05-19T11:17:35.196Z,22528.00
2023-05-19T11:18:35.017Z,19264.00
2023-05-19T11:19:34.996Z,19904.00
2023-05-19T11:20:35.073Z,18560.00
2023-05-19T11:21:34.818Z,19488.00
2023-05-19T11:22:34.727Z,18112.00
2023-05-19T11:23:35.568Z,21440.00
2023-05-19T11:24:34.586Z,18368.00
2023-05-19T11:25:34.909Z,31200.00
2023-05-19T11:26:35.142Z,20672.00
2023-05-19T11:27:34.377Z,22816.00
2023-05-19T11:28:34.325Z,20096.00
2023-05-19T11:29:34.920Z,18688.00
2023-05-19T11:30:34.152Z,17376.00
2023-05-19T11:31:34.204Z,20832.00
2023-05-19T11:32:34.100Z,14916.00
2023-05-19T11:33:33.936Z,17984.00
2023-05-19T11:34:33.871Z,15012.00
2023-05-19T11:35:36.037Z,16064.00
2023-05-19T11:36:33.730Z,15840.00
2023-05-19T11:37:33.653Z,17920.00
2023-05-19T11:38:33.574Z,14916.00
2023-05-19T11:39:33.506Z,14852.00
2023-05-19T11:40:33.447Z,19200.00
2023-05-19T11:41:33.366Z,20160.00
2023-05-19T11:42:33.292Z,39520.00
2023-05-19T11:43:33.222Z,27264.00
2023-05-19T11:44:33.394Z,14808.00
2023-05-19T11:45:33.819Z,12536.00
2023-05-19T11:48:32.892Z,36096.00
2023-05-19T11:49:32.801Z,30208.00
2023-05-19T11:50:32.719Z,26048.00
2023-05-19T11:51:32.658Z,22400.00
2023-05-19T11:52:32.582Z,32960.00
2023-05-19T11:53:33.440Z,25664.00
2023-05-19T11:54:32.448Z,32192.00
2023-05-19T11:55:32.366Z,58368.00
2023-05-19T11:56:32.301Z,73472.00
2023-05-19T11:57:32.226Z,56672.00
2023-05-19T12:00:57.841Z,12688.00
2023-05-19T12:01:57.738Z,19008.00
2023-05-19T12:02:57.732Z,68352.00
2023-05-19T12:03:57.704Z,16544.00
2023-05-19T12:04:57.592Z,45760.00
2023-05-19T12:05:57.517Z,14864.00
2023-05-19T12:06:57.783Z,45472.00
2023-05-19T12:07:57.313Z,63072.00
2023-05-19T12:08:58.696Z,70816.00
2023-05-19T12:09:57.173Z,68736.00
2023-05-19T12:10:57.108Z,76608.00
2023-05-19T12:11:57.035Z,77312.00
2023-05-19T12:12:56.974Z,74688.00
2023-05-19T12:13:56.932Z,71168.00
2023-05-19T12:14:56.837Z,71040.00
2023-05-19T12:15:57.272Z,70784.00
2023-05-19T12:16:56.706Z,35328.00
2023-05-19T12:17:56.641Z,15360.00
2023-05-19T12:19:56.479Z,49824.00
2023-05-19T12:20:56.416Z,51904.00
2023-05-19T12:21:56.590Z,52640.00
2023-05-19T12:22:56.916Z,41024.00
2023-05-19T12:24:56.180Z,41792.00
2023-05-19T12:25:56.065Z,37312.00
2023-05-19T12:26:56.010Z,42272.00
2023-05-19T12:27:57.497Z,35168.00
2023-05-19T12:29:55.791Z,42080.00
2023-05-19T12:30:55.717Z,37344.00
2023-05-19T12:31:55.666Z,38080.00
2023-05-19T12:32:55.639Z,36544.00
2023-05-19T12:34:55.442Z,39968.00
2023-05-19T12:36:57.026Z,47456.00
2023-05-19T12:37:55.235Z,45056.00
2023-05-19T12:38:55.181Z,53504.00
2023-05-19T12:41:37.643Z,54624.00
2023-05-19T12:42:37.444Z,44096.00
2023-05-19T12:43:37.674Z,44384.00
2023-05-19T12:44:37.313Z,60032.00
2023-05-19T12:46:19.750Z,59040.00
2023-05-19T12:47:19.668Z,58016.00
2023-05-19T12:48:19.760Z,59200.00
2023-05-19T12:49:19.524Z,60800.00
2023-05-19T12:51:01.954Z,54016.00
2023-05-19T12:52:03.037Z,52768.00
2023-05-19T12:53:02.116Z,45856.00
2023-05-19T12:54:01.748Z,39424.00
2023-05-19T12:55:01.768Z,34912.00
2023-05-19T12:56:01.609Z,49472.00
2023-05-19T12:57:01.538Z,48704.00
2023-05-19T12:58:01.480Z,51168.00
2023-05-19T12:59:01.457Z,52704.00
2023-05-19T13:00:01.364Z,51424.00
2023-05-19T13:01:01.372Z,49664.00
2023-05-19T13:02:02.523Z,44736.00
2023-05-19T13:03:01.374Z,35840.00
2023-05-19T13:04:02.159Z,30912.00
2023-05-19T13:05:01.023Z,27264.00
2023-05-19T13:06:00.951Z,28960.00
2023-05-19T13:07:00.869Z,25888.00
2023-05-19T13:08:00.798Z,21856.00
2023-05-19T13:09:01.130Z,19584.00
2023-05-19T13:10:00.662Z,19008.00
2023-05-19T13:11:00.595Z,17536.00
2023-05-19T13:12:00.532Z,15424.00
2023-05-19T13:13:00.464Z,15936.00
2023-05-19T13:14:00.428Z,15936.00
2023-05-19T13:15:00.323Z,16256.00
2023-05-19T13:16:00.260Z,14208.00
2023-05-19T13:17:00.380Z,14004.00
2023-05-19T13:18:00.234Z,14136.00
2023-05-19T13:19:03.782Z,13856.00
2023-05-19T13:20:00.014Z,13536.00
2023-05-19T13:20:59.921Z,13184.00
2023-05-19T13:22:00.107Z,13236.00
2023-05-19T13:22:59.764Z,14156.00
2023-05-19T13:23:59.692Z,14720.00
2023-05-19T13:24:59.622Z,14056.00
2023-05-19T13:25:59.895Z,13236.00
2023-05-19T13:26:59.475Z,13740.00
2023-05-19T13:27:59.487Z,14936.00
2023-05-19T13:28:59.337Z,17408.00
2023-05-19T13:29:59.280Z,20416.00
2023-05-19T13:30:59.231Z,23584.00
2023-05-19T13:32:01.063Z,25632.00
2023-05-19T13:32:59.069Z,20480.00
2023-05-19T13:33:58.985Z,25472.00
2023-05-19T13:34:58.940Z,31936.00
2023-05-19T13:35:58.829Z,19456.00
2023-05-19T13:36:58.782Z,22912.00
2023-05-19T13:37:59.001Z,21312.00
2023-05-19T13:38:58.614Z,23936.00
2023-05-19T13:39:58.565Z,21152.00
2023-05-19T13:40:58.484Z,38080.00
2023-05-19T13:41:58.421Z,26848.00
2023-05-19T13:42:58.339Z,20896.00
2023-05-19T13:43:58.282Z,18528.00
2023-05-19T13:44:58.191Z,31936.00
2023-05-19T13:45:58.153Z,27584.00
2023-05-19T13:46:58.088Z,21632.00
2023-05-19T13:47:58.040Z,17472.00
2023-05-19T13:48:57.915Z,15128.00
2023-05-19T13:49:58.030Z,12908.00
2023-05-19T13:50:57.785Z,10224.00
2023-05-19T13:51:57.748Z,10156.00
2023-05-19T13:52:57.621Z,10928.00
2023-05-19T13:53:57.550Z,11132.00
2023-05-19T13:54:57.538Z,10372.00
2023-05-19T13:55:57.407Z,9744.00
2023-05-19T13:56:57.337Z,9704.00
2023-05-19T13:57:57.692Z,9980.00
2023-05-19T13:58:57.194Z,10900.00
2023-05-19T14:00:03.258Z,12184.00
2023-05-19T14:00:57.062Z,13044.00
2023-05-19T14:01:56.978Z,13988.00
2023-05-19T14:02:56.969Z,15212.00
2023-05-19T14:03:57.089Z,13212.00
2023-05-19T14:04:56.770Z,11920.00
2023-05-19T14:05:56.709Z,13112.00
2023-05-19T14:06:56.644Z,16352.00